createdAt,value
2017-12-16T00:02:24.544Z,4.40
2017-12-16T00:04:52.041Z,4.50
2017-12-16T00:07:19.704Z,4.50
2017-12-16T00:09:47.215Z,4.60
2017-12-16T00:12:14.761Z,4.50
2017-12-16T00:14:42.298Z,4.50
2017-12-16T00:17:10.586Z,4.40
2017-12-16T00:19:38.135Z,4.40
2017-12-16T00:22:05.650Z,4.50
2017-12-16T00:24:33.145Z,4.50
2017-12-16T00:27:00.662Z,4.50
2017-12-16T00:29:28.192Z,4.40
2017-12-16T00:31:56.514Z,4.50
2017-12-16T00:34:24.038Z,4.40
2017-12-16T00:36:51.580Z,4.50
2017-12-16T00:39:19.146Z,4.50
2017-12-16T00:41:46.653Z,4.60
2017-12-16T00:44:14.943Z,4.50
2017-12-16T00:46:42.474Z,4.50
2017-12-16T00:49:10.027Z,4.60
2017-12-16T00:51:37.546Z,4.50
2017-12-16T00:54:05.118Z,4.50
2017-12-16T00:56:32.671Z,4.50
2017-12-16T00:59:01.033Z,4.50
2017-12-16T01:01:28.552Z,4.50
2017-12-16T01:03:56.117Z,4.60
2017-12-16T01:06:23.643Z,4.50
2017-12-16T01:08:51.226Z,4.50
2017-12-16T01:11:18.753Z,4.50
2017-12-16T01:13:46.252Z,4.50
2017-12-16T01:16:14.614Z,4.40
2017-12-16T01:18:42.160Z,4.50
2017-12-16T01:21:10.571Z,4.60
2017-12-16T01:23:38.836Z,4.60
2017-12-16T01:26:06.339Z,4.40
2017-12-16T01:28:33.864Z,4.70
2017-12-16T01:31:02.158Z,4.70
2017-12-16T01:33:41.475Z,4.60
2017-12-16T01:36:20.661Z,4.70
2017-12-16T01:38:48.199Z,4.70
2017-12-16T01:41:15.752Z,4.70
2017-12-16T01:43:43.258Z,4.50
2017-12-16T01:46:11.577Z,4.70
2017-12-16T01:48:39.916Z,4.70
2017-12-16T01:51:08.291Z,4.70
2017-12-16T01:53:35.837Z,4.60
2017-12-16T01:56:03.581Z,4.70
2017-12-16T01:58:31.110Z,4.70
2017-12-16T02:00:58.622Z,4.70
2017-12-16T02:03:26.175Z,4.70
2017-12-16T02:05:53.689Z,4.80
2017-12-16T02:08:21.288Z,4.80
2017-12-16T02:10:48.802Z,4.80
2017-12-16T02:13:16.451Z,4.80
2017-12-16T02:15:44.719Z,4.80
2017-12-16T02:18:12.225Z,4.70
2017-12-16T02:20:39.737Z,4.80
2017-12-16T02:23:07.270Z,4.80
2017-12-16T02:25:34.841Z,4.50
2017-12-16T02:28:02.476Z,4.80
2017-12-16T02:30:29.973Z,4.70
2017-12-16T02:32:57.474Z,4.70
2017-12-16T02:35:25.778Z,4.70
2017-12-16T02:37:54.060Z,4.70
2017-12-16T02:40:21.603Z,4.60
2017-12-16T02:42:49.141Z,4.60
2017-12-16T02:45:16.677Z,4.60
2017-12-16T02:47:44.190Z,4.50
2017-12-16T02:50:12.521Z,4.30
2017-12-16T02:52:40.073Z,4.30
2017-12-16T02:55:07.584Z,4.30
2017-12-16T02:57:35.984Z,4.10
2017-12-16T03:00:03.566Z,4.10
2017-12-16T03:02:31.152Z,4.10
2017-12-16T03:04:58.712Z,4.10
2017-12-16T03:07:26.285Z,4.10
2017-12-16T03:09:54.569Z,4.20
2017-12-16T03:12:22.102Z,4.20
2017-12-16T03:14:49.631Z,4.20
2017-12-16T03:17:17.142Z,4.30
2017-12-16T03:19:45.435Z,4.30
2017-12-16T03:22:12.944Z,4.30
2017-12-16T03:24:40.542Z,4.30
2017-12-16T03:27:08.824Z,4.40
2017-12-16T03:29:36.434Z,4.30
2017-12-16T03:32:04.712Z,4.30
2017-12-16T03:34:32.224Z,4.30
2017-12-16T03:36:59.741Z,4.30
2017-12-16T03:39:28.021Z,4.40
2017-12-16T03:41:55.576Z,4.30
2017-12-16T03:44:23.149Z,4.30
2017-12-16T03:46:50.703Z,4.30
2017-12-16T03:49:18.988Z,4.50
2017-12-16T03:51:46.545Z,4.40
2017-12-16T03:54:14.060Z,4.40
2017-12-16T03:56:41.594Z,4.40
2017-12-16T03:59:09.106Z,4.40
2017-12-16T04:01:36.659Z,4.40
2017-12-16T04:04:04.154Z,4.40
2017-12-16T04:06:31.662Z,4.50
2017-12-16T04:08:59.997Z,4.50
2017-12-16T04:11:27.532Z,4.50
2017-12-16T04:13:55.066Z,4.60
2017-12-16T04:16:22.577Z,4.60
2017-12-16T04:18:50.094Z,4.60
2017-12-16T04:21:17.616Z,4.60
2017-12-16T04:23:45.155Z,4.70
2017-12-16T04:26:12.679Z,4.50
2017-12-16T04:28:40.192Z,4.70
2017-12-16T04:31:07.720Z,4.70
2017-12-16T04:33:35.238Z,4.70
2017-12-16T04:36:02.758Z,4.70
2017-12-16T04:38:30.257Z,4.80
2017-12-16T04:40:57.804Z,4.80
2017-12-16T04:43:25.345Z,4.80
2017-12-16T04:45:53.630Z,4.90
2017-12-16T04:48:21.141Z,4.80
2017-12-16T04:50:48.687Z,4.90
2017-12-16T04:53:16.206Z,4.80
2017-12-16T04:55:44.481Z,4.80
2017-12-16T04:58:11.993Z,4.80
2017-12-16T05:00:40.280Z,4.70
2017-12-16T05:03:07.783Z,4.70
2017-12-16T05:05:35.326Z,4.80
2017-12-16T05:08:03.622Z,4.70
2017-12-16T05:10:31.182Z,4.70
2017-12-16T05:12:58.701Z,4.70
2017-12-16T05:15:26.976Z,4.70
2017-12-16T05:17:54.537Z,4.70
2017-12-16T05:20:22.047Z,4.70
2017-12-16T05:22:49.799Z,4.70
2017-12-16T05:25:17.395Z,4.70
2017-12-16T05:27:45.679Z,4.60
2017-12-16T05:30:13.207Z,4.60
2017-12-16T05:32:40.728Z,4.50
2017-12-16T05:35:08.347Z,4.40
2017-12-16T05:37:35.902Z,4.40
2017-12-16T05:40:03.465Z,4.40
2017-12-16T05:42:31.821Z,4.40
2017-12-16T05:44:59.333Z,4.40
2017-12-16T05:47:26.873Z,4.40
2017-12-16T05:49:54.417Z,4.40
2017-12-16T05:52:21.936Z,4.40
2017-12-16T05:54:50.254Z,4.40
2017-12-16T05:57:18.537Z,4.50
2017-12-16T05:59:46.078Z,4.40
2017-12-16T06:02:14.611Z,4.50
2017-12-16T06:04:42.401Z,4.50
2017-12-16T06:07:09.955Z,4.50
2017-12-16T06:09:37.496Z,4.50
2017-12-16T06:12:05.029Z,4.50
2017-12-16T06:14:33.302Z,4.50
2017-12-16T06:17:00.854Z,4.60
2017-12-16T06:19:28.378Z,4.60
2017-12-16T06:21:56.067Z,4.60
2017-12-16T06:24:24.430Z,4.60
2017-12-16T06:26:52.001Z,4.50
2017-12-16T06:29:20.280Z,4.60
2017-12-16T06:31:48.882Z,4.50
2017-12-16T06:34:16.384Z,4.50
2017-12-16T06:36:44.681Z,4.40
2017-12-16T06:39:12.297Z,4.40
2017-12-16T06:41:39.814Z,4.30
2017-12-16T06:44:07.369Z,4.30
2017-12-16T06:46:34.888Z,4.30
2017-12-16T06:49:03.193Z,4.30
2017-12-16T06:51:31.506Z,4.30
2017-12-16T06:53:59.108Z,4.30
2017-12-16T06:56:27.390Z,4.40
2017-12-16T06:58:55.682Z,4.30
2017-12-16T07:01:23.967Z,4.30
2017-12-16T07:03:52.343Z,4.20
2017-12-16T07:06:19.906Z,4.20
2017-12-16T07:08:47.499Z,4.20
2017-12-16T07:11:15.020Z,4.20
2017-12-16T07:13:42.529Z,4.20
2017-12-16T07:16:10.058Z,4.20
2017-12-16T07:18:37.567Z,4.20
2017-12-16T07:21:05.084Z,4.20
2017-12-16T07:23:32.625Z,4.20
2017-12-16T07:26:00.136Z,4.30
2017-12-16T07:28:28.444Z,4.40
2017-12-16T07:30:55.975Z,4.40
2017-12-16T07:33:24.288Z,4.40
2017-12-16T07:35:51.809Z,4.40
2017-12-16T07:38:20.073Z,4.50
2017-12-16T07:40:47.599Z,4.30
2017-12-16T07:43:15.120Z,4.50
2017-12-16T07:45:42.645Z,4.60
2017-12-16T07:48:10.142Z,4.70
2017-12-16T07:50:37.716Z,4.90
2017-12-16T07:53:05.258Z,5.00
2017-12-16T07:55:33.549Z,5.70
2017-12-16T07:58:01.939Z,5.90
2017-12-16T08:00:29.456Z,5.70
2017-12-16T08:02:57.785Z,5.90
2017-12-16T08:05:25.323Z,5.90
2017-12-16T08:07:52.854Z,5.70
2017-12-16T08:10:20.372Z,5.70
2017-12-16T08:12:48.025Z,5.60
2017-12-16T08:15:15.656Z,5.60
2017-12-16T08:17:43.210Z,5.50
2017-12-16T08:20:10.915Z,5.30
2017-12-16T08:22:38.448Z,5.20
2017-12-16T08:25:07.910Z,5.00
2017-12-16T08:27:35.433Z,5.00
2017-12-16T08:30:03.064Z,5.10
2017-12-16T08:32:30.590Z,5.10
2017-12-16T08:34:58.217Z,5.20
2017-12-16T08:37:25.761Z,5.20
2017-12-16T08:39:54.037Z,5.40
2017-12-16T08:42:21.677Z,5.30
2017-12-16T08:44:49.948Z,5.40
2017-12-16T08:47:18.225Z,5.50
2017-12-16T08:49:45.780Z,5.50
2017-12-16T08:52:13.333Z,5.50
2017-12-16T08:54:40.854Z,5.60
2017-12-16T08:57:08.446Z,5.50
2017-12-16T08:59:36.008Z,5.40
2017-12-16T09:02:03.516Z,5.30
2017-12-16T09:04:31.879Z,5.30
2017-12-16T09:06:59.539Z,5.30
2017-12-16T09:09:27.833Z,5.30
2017-12-16T09:11:56.132Z,5.20
2017-12-16T09:14:23.677Z,5.40
2017-12-16T09:16:51.339Z,5.40
2017-12-16T09:19:18.970Z,5.50
2017-12-16T09:21:46.657Z,5.50
2017-12-16T09:24:14.200Z,5.60
2017-12-16T09:26:41.754Z,5.70
2017-12-16T09:29:10.035Z,5.70
2017-12-16T09:31:37.590Z,5.70
2017-12-16T09:34:05.129Z,5.80
2017-12-16T09:36:33.437Z,5.80
2017-12-16T09:39:00.960Z,5.70
2017-12-16T09:41:28.632Z,5.80
2017-12-16T09:43:57.035Z,5.70
2017-12-16T09:46:25.488Z,5.80
2017-12-16T09:48:54.056Z,5.70
2017-12-16T09:51:22.374Z,5.70
2017-12-16T09:53:49.918Z,5.90
2017-12-16T09:56:17.469Z,6.10
2017-12-16T09:58:45.092Z,6.20
2017-12-16T10:01:13.429Z,6.30
2017-12-16T10:03:41.748Z,6.60
2017-12-16T10:06:09.303Z,6.40
2017-12-16T10:08:36.886Z,6.50
2017-12-16T10:11:05.204Z,6.50
2017-12-16T10:13:33.485Z,6.50
2017-12-16T10:16:00.994Z,6.50
2017-12-16T10:18:29.284Z,6.40
2017-12-16T10:20:56.833Z,6.40
2017-12-16T10:23:24.387Z,6.50
2017-12-16T10:25:51.903Z,6.40
2017-12-16T10:28:19.580Z,6.30
2017-12-16T10:30:47.179Z,6.30
2017-12-16T10:33:14.786Z,6.30
2017-12-16T10:35:42.452Z,6.40
2017-12-16T10:38:10.023Z,6.50
2017-12-16T10:40:38.308Z,6.40
2017-12-16T10:43:05.920Z,6.40
2017-12-16T10:45:34.194Z,6.30
2017-12-16T10:48:01.725Z,6.30
2017-12-16T10:50:30.016Z,6.40
2017-12-16T10:52:57.550Z,6.40
2017-12-16T10:55:25.231Z,6.50
2017-12-16T10:57:52.798Z,6.50
2017-12-16T11:00:21.392Z,6.50
2017-12-16T11:02:48.924Z,6.50
2017-12-16T11:05:16.452Z,6.40
2017-12-16T11:07:43.988Z,6.30
2017-12-16T11:10:11.497Z,6.30
2017-12-16T11:12:39.093Z,6.40
2017-12-16T11:15:06.666Z,6.40
2017-12-16T11:17:34.240Z,6.40
2017-12-16T11:20:01.800Z,6.30
2017-12-16T11:22:30.082Z,6.00
2017-12-16T11:24:57.603Z,6.30
2017-12-16T11:27:25.981Z,6.20
2017-12-16T11:29:54.358Z,6.10
2017-12-16T11:32:21.905Z,6.10
2017-12-16T11:34:49.427Z,6.00
2017-12-16T11:37:16.950Z,6.00
2017-12-16T11:39:44.548Z,6.00
2017-12-16T11:42:12.107Z,6.10
2017-12-16T11:44:39.730Z,6.30
2017-12-16T11:47:07.300Z,5.90
2017-12-16T11:49:34.831Z,6.10
2017-12-16T11:52:02.349Z,6.10
2017-12-16T11:54:29.999Z,5.90
2017-12-16T11:56:57.517Z,5.80
2017-12-16T11:59:25.372Z,5.80
2017-12-16T12:01:52.961Z,5.90
2017-12-16T12:04:20.500Z,6.10
2017-12-16T12:06:48.839Z,6.40
2017-12-16T12:09:16.379Z,6.40
2017-12-16T12:11:43.904Z,6.50
2017-12-16T12:14:11.459Z,6.50
2017-12-16T12:16:39.760Z,6.80
2017-12-16T12:19:08.067Z,6.80
2017-12-16T12:21:35.586Z,6.80
2017-12-16T12:24:04.142Z,6.70
2017-12-16T12:26:31.700Z,6.70
2017-12-16T12:28:59.996Z,6.60
2017-12-16T12:31:27.536Z,6.50
2017-12-16T12:33:55.163Z,6.70
2017-12-16T12:36:24.611Z,6.60
2017-12-16T12:38:52.382Z,6.60
2017-12-16T12:41:19.932Z,6.70
2017-12-16T12:43:47.582Z,6.50
2017-12-16T12:46:16.206Z,6.50
2017-12-16T12:48:43.740Z,6.50
2017-12-16T12:51:11.400Z,6.30
2017-12-16T12:53:39.075Z,6.30
2017-12-16T12:56:06.628Z,6.10
2017-12-16T12:58:34.254Z,6.10
2017-12-16T13:01:01.847Z,6.10
2017-12-16T13:03:30.155Z,6.00
2017-12-16T13:05:57.750Z,6.00
2017-12-16T13:08:26.065Z,6.10
2017-12-16T13:10:54.486Z,6.10
2017-12-16T13:13:22.760Z,6.10
2017-12-16T13:15:50.448Z,6.10
2017-12-16T13:18:17.945Z,6.10
2017-12-16T13:20:45.613Z,5.90
2017-12-16T13:23:13.167Z,5.80
2017-12-16T13:25:40.796Z,5.80
2017-12-16T13:28:08.386Z,5.50
2017-12-16T13:30:35.949Z,5.60
2017-12-16T13:33:03.495Z,5.60
2017-12-16T13:35:31.848Z,5.40
2017-12-16T13:37:59.370Z,5.40
2017-12-16T13:40:26.928Z,5.30
2017-12-16T13:42:54.575Z,5.20
2017-12-16T13:45:22.104Z,5.10
2017-12-16T13:47:49.654Z,5.00
2017-12-16T13:50:17.224Z,4.70
2017-12-16T13:52:44.908Z,4.50
2017-12-16T13:55:13.452Z,4.10
2017-12-16T13:57:41.024Z,4.10
2017-12-16T14:00:08.553Z,4.10
2017-12-16T14:02:36.124Z,4.00
2017-12-16T14:05:03.675Z,4.00
2017-12-16T14:07:31.963Z,3.70
2017-12-16T14:09:59.560Z,3.70
2017-12-16T14:12:27.092Z,3.70
2017-12-16T14:14:54.808Z,3.70
2017-12-16T14:17:22.349Z,3.70
2017-12-16T14:19:49.926Z,3.60
2017-12-16T14:22:17.462Z,3.50
2017-12-16T14:24:44.982Z,3.40
2017-12-16T14:27:12.573Z,3.40
2017-12-16T14:29:40.091Z,3.40
2017-12-16T14:32:07.711Z,3.30
2017-12-16T14:34:35.285Z,3.30
2017-12-16T14:37:02.879Z,3.40
2017-12-16T14:39:30.444Z,3.20
2017-12-16T14:41:58.794Z,3.10
2017-12-16T14:44:26.312Z,3.10
2017-12-16T14:46:53.865Z,3.00
2017-12-16T14:49:21.376Z,3.00
2017-12-16T14:51:49.043Z,3.00
2017-12-16T14:54:17.358Z,3.10
2017-12-16T14:56:44.902Z,3.10
2017-12-16T14:59:13.231Z,3.10
2017-12-16T15:01:40.753Z,3.10
2017-12-16T15:04:08.316Z,3.10
2017-12-16T15:06:36.659Z,3.20
2017-12-16T15:09:04.200Z,3.20
2017-12-16T15:11:31.764Z,3.00
2017-12-16T15:13:59.278Z,3.00
2017-12-16T15:16:26.896Z,2.90
2017-12-16T15:18:55.180Z,2.90
2017-12-16T15:21:22.764Z,2.80
2017-12-16T15:23:50.313Z,2.80
2017-12-16T15:26:17.837Z,2.80
2017-12-16T15:28:45.353Z,2.80
2017-12-16T15:31:12.899Z,2.80
2017-12-16T15:33:40.429Z,2.80
2017-12-16T15:36:07.966Z,2.70
2017-12-16T15:38:35.602Z,2.80
2017-12-16T15:41:03.216Z,2.80
2017-12-16T15:43:31.543Z,2.80
2017-12-16T15:45:59.149Z,2.80
2017-12-16T15:48:27.464Z,2.80
2017-12-16T15:50:55.134Z,2.80
2017-12-16T15:53:22.712Z,2.90
2017-12-16T15:55:50.366Z,3.00
2017-12-16T15:58:18.651Z,2.90
2017-12-16T16:00:46.221Z,2.90
2017-12-16T16:03:13.791Z,3.30
2017-12-16T16:05:41.331Z,3.10
2017-12-16T16:08:08.872Z,3.10
2017-12-16T16:10:36.448Z,3.20
2017-12-16T16:13:04.010Z,3.20
2017-12-16T16:15:31.570Z,3.20
2017-12-16T16:17:59.166Z,3.20
2017-12-16T16:20:26.692Z,3.30
2017-12-16T16:22:54.295Z,3.30
2017-12-16T16:25:21.873Z,3.40
2017-12-16T16:27:49.555Z,3.50
2017-12-16T16:30:17.079Z,3.40
2017-12-16T16:32:45.392Z,3.50
2017-12-16T16:35:13.689Z,3.50
2017-12-16T16:37:41.784Z,3.50
2017-12-16T16:40:10.109Z,3.40
2017-12-16T16:42:37.878Z,3.40
2017-12-16T16:45:07.107Z,3.40
2017-12-16T16:47:35.392Z,3.50
2017-12-16T16:50:02.966Z,3.50
2017-12-16T16:52:30.508Z,3.60
2017-12-16T16:54:58.029Z,3.60
2017-12-16T16:57:26.334Z,3.60
2017-12-16T16:59:54.798Z,3.60
2017-12-16T17:02:22.321Z,3.60
2017-12-16T17:04:50.634Z,3.50
2017-12-16T17:07:18.194Z,3.50
2017-12-16T17:09:45.734Z,3.40
2017-12-16T17:12:13.278Z,3.50
2017-12-16T17:14:40.838Z,3.40
2017-12-16T17:17:08.357Z,3.30
2017-12-16T17:19:35.921Z,3.20
2017-12-16T17:22:03.480Z,3.10
2017-12-16T17:24:31.848Z,3.20
2017-12-16T17:26:59.413Z,3.20
2017-12-16T17:29:26.949Z,3.20
2017-12-16T17:31:54.535Z,3.30
2017-12-16T17:34:22.124Z,3.30
2017-12-16T17:36:49.692Z,3.20
2017-12-16T17:39:17.240Z,3.10
2017-12-16T17:41:44.802Z,3.30
2017-12-16T17:44:13.160Z,3.30
2017-12-16T17:46:40.703Z,3.30
2017-12-16T17:49:09.002Z,3.30
2017-12-16T17:51:36.556Z,3.30
2017-12-16T17:54:04.099Z,3.40
2017-12-16T17:56:31.669Z,3.40
2017-12-16T17:58:59.207Z,3.40
2017-12-16T18:01:26.759Z,3.50
2017-12-16T18:03:55.079Z,3.60
2017-12-16T18:06:22.808Z,3.50
2017-12-16T18:08:50.381Z,3.50
2017-12-16T18:11:18.843Z,3.50
2017-12-16T18:13:46.517Z,3.40
2017-12-16T18:16:14.072Z,3.50
2017-12-16T18:18:42.385Z,3.40
2017-12-16T18:21:10.698Z,3.50
2017-12-16T18:23:38.442Z,3.50
2017-12-16T18:26:05.987Z,3.40
2017-12-16T18:28:34.440Z,3.60
2017-12-16T18:31:02.107Z,3.50
2017-12-16T18:33:29.670Z,3.50
2017-12-16T18:35:57.334Z,3.60
2017-12-16T18:38:25.655Z,3.60
2017-12-16T18:40:53.226Z,3.60
2017-12-16T18:43:21.535Z,3.60
2017-12-16T18:45:49.830Z,3.60
2017-12-16T18:48:17.397Z,3.60
2017-12-16T18:50:45.056Z,3.60
2017-12-16T18:53:13.419Z,3.60
2017-12-16T18:55:42.047Z,3.60
2017-12-16T18:58:09.600Z,3.60
2017-12-16T19:00:37.126Z,3.50
2017-12-16T19:03:04.697Z,3.40
2017-12-16T19:05:32.274Z,3.40
2017-12-16T19:07:59.821Z,3.50
2017-12-16T19:10:27.345Z,3.40
2017-12-16T19:12:54.875Z,3.40
2017-12-16T19:15:22.383Z,3.40
2017-12-16T19:17:50.059Z,3.40
2017-12-16T19:20:18.917Z,3.40
2017-12-16T19:22:46.514Z,3.40
2017-12-16T19:25:14.235Z,3.50
2017-12-16T19:27:41.871Z,3.40
2017-12-16T19:30:10.211Z,3.40
2017-12-16T19:32:38.660Z,3.40
2017-12-16T19:35:06.230Z,3.40
2017-12-16T19:37:33.766Z,3.30
2017-12-16T19:40:01.328Z,3.40
2017-12-16T19:42:28.919Z,3.30
2017-12-16T19:44:56.421Z,3.20
2017-12-16T19:47:24.128Z,3.10
2017-12-16T19:49:51.985Z,3.10
2017-12-16T19:52:20.295Z,3.10
2017-12-16T19:54:47.955Z,3.10
2017-12-16T19:57:15.687Z,3.10
2017-12-16T19:59:43.212Z,3.10
2017-12-16T20:02:11.514Z,3.20
2017-12-16T20:04:40.014Z,3.10
2017-12-16T20:07:08.405Z,3.10
2017-12-16T20:09:36.897Z,3.10
2017-12-16T20:12:05.286Z,3.10
2017-12-16T20:14:32.967Z,3.10
2017-12-16T20:17:00.563Z,3.00
2017-12-16T20:19:28.157Z,3.10
2017-12-16T20:21:55.705Z,3.20
2017-12-16T20:24:23.258Z,3.20
2017-12-16T20:26:50.828Z,3.00
2017-12-16T20:29:18.517Z,3.30
2017-12-16T20:31:46.742Z,3.30
2017-12-16T20:34:14.350Z,3.30
2017-12-16T20:36:41.874Z,3.20
2017-12-16T20:39:09.462Z,3.20
2017-12-16T20:41:37.028Z,3.20
2017-12-16T20:44:05.402Z,3.20
2017-12-16T20:46:32.941Z,3.20
2017-12-16T20:49:00.786Z,3.20
2017-12-16T20:51:28.355Z,3.20
2017-12-16T20:53:55.996Z,3.30
2017-12-16T20:56:23.632Z,3.30
2017-12-16T20:58:51.514Z,3.30
2017-12-16T21:01:20.055Z,3.20
2017-12-16T21:03:47.699Z,3.10
2017-12-16T21:06:16.014Z,2.90
2017-12-16T21:08:43.594Z,3.00
2017-12-16T21:11:11.137Z,3.00
2017-12-16T21:13:38.854Z,2.90
2017-12-16T21:16:07.200Z,2.90
2017-12-16T21:18:34.725Z,2.90
2017-12-16T21:21:02.304Z,2.90
2017-12-16T21:23:29.838Z,2.90
2017-12-16T21:25:57.373Z,2.90
2017-12-16T21:28:24.981Z,2.90
2017-12-16T21:30:52.538Z,2.90
2017-12-16T21:33:20.082Z,2.90
2017-12-16T21:35:48.403Z,2.90
2017-12-16T21:38:16.084Z,2.90
2017-12-16T21:40:43.595Z,2.90
2017-12-16T21:43:11.932Z,2.90
2017-12-16T21:45:39.515Z,2.90
2017-12-16T21:48:07.829Z,2.90
2017-12-16T21:50:35.408Z,2.90
2017-12-16T21:53:02.954Z,2.80
2017-12-16T21:55:30.614Z,2.90
2017-12-16T21:57:58.210Z,2.90
2017-12-16T22:00:25.812Z,2.90
2017-12-16T22:02:53.441Z,2.90
2017-12-16T22:05:21.756Z,3.00
2017-12-16T22:07:49.647Z,2.90
2017-12-16T22:10:17.312Z,3.00
2017-12-16T22:12:44.954Z,3.00
2017-12-16T22:15:13.352Z,3.00
2017-12-16T22:17:41.022Z,3.00
2017-12-16T22:20:09.392Z,3.00
2017-12-16T22:22:36.932Z,3.00
2017-12-16T22:25:11.236Z,3.00
2017-12-16T22:27:40.015Z,3.10
2017-12-16T22:30:07.702Z,3.10
2017-12-16T22:32:35.539Z,3.00
2017-12-16T22:35:03.832Z,3.10
2017-12-16T22:37:32.125Z,3.10
2017-12-16T22:40:01.272Z,3.00
2017-12-16T22:42:31.383Z,3.10
2017-12-16T22:45:02.766Z,3.00
2017-12-16T22:47:37.665Z,3.00
2017-12-16T22:50:06.322Z,3.10
2017-12-16T22:52:36.945Z,3.10
2017-12-16T22:55:09.753Z,3.20
2017-12-16T22:57:38.720Z,3.10
2017-12-16T23:00:06.746Z,3.20
2017-12-16T23:02:34.454Z,3.10
2017-12-16T23:05:02.173Z,3.20
2017-12-16T23:07:29.712Z,3.20
2017-12-16T23:09:57.309Z,3.20
2017-12-16T23:12:24.850Z,3.30
2017-12-16T23:14:52.378Z,3.20
2017-12-16T23:17:20.748Z,3.30
2017-12-16T23:19:48.252Z,3.30
2017-12-16T23:22:16.006Z,3.30
2017-12-16T23:24:44.307Z,3.30
2017-12-16T23:27:12.752Z,3.30
2017-12-16T23:29:40.268Z,3.30
2017-12-16T23:32:07.798Z,3.40
2017-12-16T23:34:36.127Z,3.30
2017-12-16T23:37:03.651Z,3.30
2017-12-16T23:39:31.197Z,3.40
2017-12-16T23:41:59.495Z,3.30
2017-12-16T23:44:27.004Z,3.30
2017-12-16T23:46:54.529Z,3.40
2017-12-16T23:49:22.154Z,3.40
2017-12-16T23:51:49.792Z,3.40
2017-12-16T23:54:17.326Z,3.40
2017-12-16T23:56:44.836Z,3.40
2017-12-16T23:59:12.391Z,3.40
